Time;durP1;ratioP1;P1;durP2;ratioP2;P2;SDS_P1;SDS_P2;PMS_P1;PMS_P2;Temp;Humidity;BMP_temperature;BMP_pressure;BME280_temperature;BME280_humidity;BME280_pressure;Samples;Min_cycle;Max_cycle;Signal;HPM_P1;HPM_P2
2021/12/04 00:00:27;;;;;;;4.33;2.83;;;;;;;;;;5073766;28;20436;-67
2021/12/04 00:02:53;;;;;;;5.90;2.40;;;;;;;;;;5073341;28;20911;-66
2021/12/04 00:05:21;;;;;;;4.00;2.60;;;;;;;;;;5073428;28;20778;-67
2021/12/04 00:07:47;;;;;;;3.23;2.80;;;;;;;;;;5073218;28;20498;-67
2021/12/04 00:10:18;;;;;;;5.07;2.50;;;;;;;;;;5073552;28;20551;-67
2021/12/04 00:12:44;;;;;;;7.43;3.50;;;;;;;;;;5073604;28;20389;-67
2021/12/04 00:15:10;;;;;;;3.63;2.30;;;;;;;;;;5073288;28;20615;-67
2021/12/04 00:17:36;;;;;;;4.50;3.33;;;;;;;;;;5073356;28;20771;-67
2021/12/04 00:20:06;;;;;;;3.70;2.20;;;;;;;;;;5073457;28;20895;-66
2021/12/04 00:22:32;;;;;;;4.83;2.03;;;;;;;;;;5073387;28;20400;-67
2021/12/04 00:24:58;;;;;;;4.43;2.17;;;;;;;;;;5073165;28;20478;-68
2021/12/04 00:27:24;;;;;;;6.20;2.30;;;;;;;;;;5073070;28;20965;-67
2021/12/04 00:29:51;;;;;;;7.70;3.57;;;;;;;;;;5073319;28;20837;-68
2021/12/04 00:32:37;;;;;;;4.70;2.40;;;;;;;;;;5073281;28;20742;-67
2021/12/04 00:51:29;;;;;;;3.30;2.20;;;;;;;;;;5072723;28;20992;-68
2021/12/04 00:53:55;;;;;;;9.20;2.83;;;;;;;;;;5072706;28;20439;-67
2021/12/04 00:56:22;;;;;;;6.43;2.47;;;;;;;;;;5072707;28;20472;-68
2021/12/04 00:58:48;;;;;;;2.20;1.90;;;;;;;;;;5072960;28;20810;-68
2021/12/04 01:01:17;;;;;;;5.30;3.40;;;;;;;;;;5072758;28;20417;-68
2021/12/04 01:03:43;;;;;;;4.87;2.33;;;;;;;;;;5072713;28;20531;-68
2021/12/04 01:06:09;;;;;;;4.30;2.10;;;;;;;;;;5072752;28;20404;-67
2021/12/04 01:08:35;;;;;;;4.20;2.27;;;;;;;;;;5072555;28;20441;-66
2021/12/04 01:11:02;;;;;;;4.73;2.27;;;;;;;;;;5072548;28;20790;-67
2021/12/04 01:13:29;;;;;;;3.37;1.97;;;;;;;;;;5072994;28;20481;-66
2021/12/04 01:15:55;;;;;;;2.93;1.80;;;;;;;;;;5072537;28;20404;-66
2021/12/04 01:18:21;;;;;;;5.83;2.30;;;;;;;;;;5072389;28;20428;-66
2021/12/04 01:20:47;;;;;;;5.30;1.90;;;;;;;;;;5072570;28;20785;-67
2021/12/04 01:23:15;;;;;;;8.40;2.20;;;;;;;;;;5072733;28;20412;-67
2021/12/04 01:25:41;;;;;;;4.90;1.90;;;;;;;;;;5072789;28;20397;-67
2021/12/04 01:28:07;;;;;;;3.40;2.10;;;;;;;;;;5072642;28;20850;-67
2021/12/04 01:30:34;;;;;;;10.00;2.60;;;;;;;;;;5072419;28;20421;-67
2021/12/04 01:33:01;;;;;;;3.20;1.90;;;;;;;;;;5072446;28;20440;-67
2021/12/04 01:35:27;;;;;;;2.67;1.70;;;;;;;;;;5072656;28;20401;-67
2021/12/04 01:37:53;;;;;;;3.73;1.60;;;;;;;;;;5072362;28;20439;-67
2021/12/04 01:40:19;;;;;;;4.90;2.07;;;;;;;;;;5072303;28;20437;-67
2021/12/04 01:42:45;;;;;;;2.83;2.00;;;;;;;;;;5072374;28;20409;-66
2021/12/04 01:45:12;;;;;;;3.47;1.87;;;;;;;;;;5072287;28;20401;-66
2021/12/04 01:47:38;;;;;;;4.20;1.80;;;;;;;;;;5072242;28;20440;-67
2021/12/04 01:50:05;;;;;;;2.27;1.33;;;;;;;;;;5072151;28;20432;-68
2021/12/04 01:52:31;;;;;;;3.17;1.70;;;;;;;;;;5072254;28;20534;-67
2021/12/04 01:54:58;;;;;;;2.20;1.50;;;;;;;;;;5072174;28;20496;-68
2021/12/04 01:57:24;;;;;;;3.50;1.57;;;;;;;;;;5072392;28;20409;-67
2021/12/04 01:59:51;;;;;;;3.47;1.77;;;;;;;;;;5071964;28;20811;-67
2021/12/04 02:02:17;;;;;;;3.23;1.80;;;;;;;;;;5074413;28;20408;-67
2021/12/04 02:04:43;;;;;;;2.77;2.10;;;;;;;;;;5075894;28;20789;-66
2021/12/04 02:07:10;;;;;;;8.63;1.97;;;;;;;;;;5075826;28;20405;-68
2021/12/04 02:09:37;;;;;;;3.40;1.97;;;;;;;;;;5075808;28;20400;-67
2021/12/04 02:12:05;;;;;;;3.30;1.70;;;;;;;;;;5075884;28;20782;-68
2021/12/04 02:14:35;;;;;;;3.33;1.77;;;;;;;;;;5075873;28;20446;-66
2021/12/04 02:17:01;;;;;;;2.53;2.10;;;;;;;;;;5075670;28;20401;-66
2021/12/04 02:19:28;;;;;;;2.43;1.73;;;;;;;;;;5064139;28;20428;-66
2021/12/04 02:21:54;;;;;;;4.03;2.00;;;;;;;;;;5074224;28;20441;-66
2021/12/04 02:24:20;;;;;;;3.03;2.00;;;;;;;;;;5076226;28;20454;-68
2021/12/04 02:26:50;;;;;;;3.57;2.13;;;;;;;;;;5075385;28;20401;-67
2021/12/04 02:29:16;;;;;;;3.90;1.77;;;;;;;;;;5075297;28;20577;-68
2021/12/04 02:31:49;;;;;;;7.27;2.03;;;;;;;;;;5075242;28;20474;-68
2021/12/04 02:34:23;;;;;;;2.73;1.70;;;;;;;;;;5075409;28;20770;-68
2021/12/04 02:36:50;;;;;;;2.20;1.50;;;;;;;;;;5075381;28;20416;-67
2021/12/04 02:39:24;;;;;;;3.00;1.73;;;;;;;;;;5075506;28;20531;-67
2021/12/04 02:41:50;;;;;;;2.13;1.47;;;;;;;;;;5075159;28;20440;-67
2021/12/04 02:44:16;;;;;;;2.30;1.50;;;;;;;;;;5075140;28;20413;-67
2021/12/04 02:46:42;;;;;;;2.47;1.50;;;;;;;;;;5074945;28;20409;-66
2021/12/04 02:49:10;;;;;;;1.80;1.30;;;;;;;;;;5075116;28;20861;-67
2021/12/04 02:51:36;;;;;;;2.37;1.63;;;;;;;;;;5074895;28;20429;-66
2021/12/04 02:54:02;;;;;;;2.63;1.63;;;;;;;;;;5074807;28;20428;-67
2021/12/04 02:56:28;;;;;;;2.27;1.60;;;;;;;;;;5074756;28;20401;-67
2021/12/04 02:59:00;;;;;;;2.17;1.60;;;;;;;;;;5074534;28;20401;-67
2021/12/04 03:01:27;;;;;;;2.33;1.80;;;;;;;;;;5074657;28;20508;-67
2021/12/04 03:03:53;;;;;;;2.93;1.70;;;;;;;;;;5074726;28;20405;-67
2021/12/04 03:06:19;;;;;;;2.70;1.63;;;;;;;;;;5074671;28;20891;-67
2021/12/04 03:08:46;;;;;;;2.30;1.40;;;;;;;;;;5074427;28;20978;-67
2021/12/04 03:11:12;;;;;;;3.20;2.30;;;;;;;;;;5074350;28;20421;-67
2021/12/04 03:13:38;;;;;;;2.57;1.67;;;;;;;;;;5073268;28;20393;-67
2021/12/04 03:16:04;;;;;;;2.50;1.30;;;;;;;;;;5074380;28;20393;-67
2021/12/04 03:18:30;;;;;;;3.70;1.60;;;;;;;;;;5074279;28;20815;-67
2021/12/04 03:20:58;;;;;;;2.07;1.60;;;;;;;;;;5074390;28;20818;-67
2021/12/04 03:23:39;;;;;;;2.10;1.60;;;;;;;;;;5074510;28;20409;-67
2021/12/04 03:26:09;;;;;;;2.57;1.90;;;;;;;;;;5074166;28;20898;-67
2021/12/04 03:28:35;;;;;;;3.83;1.70;;;;;;;;;;5074020;28;20860;-67
2021/12/04 03:31:14;;;;;;;2.03;1.50;;;;;;;;;;5073938;28;20508;-67
2021/12/04 03:41:54;;;;;;;3.80;1.93;;;;;;;;;;5074071;28;20458;-67
2021/12/04 03:44:20;;;;;;;2.50;1.57;;;;;;;;;;5074298;28;20417;-67
2021/12/04 03:46:48;;;;;;;2.13;1.30;;;;;;;;;;5073907;28;20393;-67
2021/12/04 03:49:14;;;;;;;3.07;1.63;;;;;;;;;;5073954;28;20543;-67
2021/12/04 03:51:40;;;;;;;4.63;1.90;;;;;;;;;;5066127;28;20453;-68
2021/12/04 03:54:06;;;;;;;2.47;1.70;;;;;;;;;;5053737;28;20413;-68
2021/12/04 03:56:35;;;;;;;2.57;1.47;;;;;;;;;;5053695;28;20438;-68
2021/12/04 03:59:01;;;;;;;3.00;1.80;;;;;;;;;;5052309;28;20420;-68
2021/12/04 04:01:27;;;;;;;2.17;1.60;;;;;;;;;;5052148;28;20430;-66
2021/12/04 04:03:53;;;;;;;2.40;1.60;;;;;;;;;;5053358;28;20460;-67
2021/12/04 04:06:19;;;;;;;2.43;1.40;;;;;;;;;;5053385;28;20394;-66
2021/12/04 04:08:46;;;;;;;5.13;1.70;;;;;;;;;;5053166;28;20448;-66
2021/12/04 04:11:12;;;;;;;5.23;1.70;;;;;;;;;;5053479;28;20421;-66
2021/12/04 04:13:42;;;;;;;2.20;1.77;;;;;;;;;;5053253;28;20394;-66
2021/12/04 04:16:08;;;;;;;2.63;1.50;;;;;;;;;;5053336;28;20971;-66
2021/12/04 04:18:34;;;;;;;2.13;1.50;;;;;;;;;;5053213;28;20406;-66
2021/12/04 04:21:00;;;;;;;2.83;1.30;;;;;;;;;;5053046;28;20426;-67
2021/12/04 04:23:26;;;;;;;2.43;1.60;;;;;;;;;;5053237;28;20780;-68
2021/12/04 04:25:52;;;;;;;2.70;1.67;;;;;;;;;;5052695;28;20406;-68
2021/12/04 04:28:19;;;;;;;2.40;1.70;;;;;;;;;;5053147;28;20499;-68
2021/12/04 04:30:45;;;;;;;2.10;1.50;;;;;;;;;;5052852;28;20916;-68
2021/12/04 04:33:14;;;;;;;3.50;1.60;;;;;;;;;;5052815;28;20468;-67
2021/12/04 04:35:40;;;;;;;1.93;1.40;;;;;;;;;;5053035;28;20513;-68
2021/12/04 04:59:52;;;;;;;2.37;1.47;;;;;;;;;;5072792;28;20392;-67
2021/12/04 05:13:18;;;;;;;2.00;1.40;;;;;;;;;;5073152;28;20405;-67
2021/12/04 05:18:24;;;;;;;2.23;1.40;;;;;;;;;;5073047;28;20406;-68
2021/12/04 05:21:06;;;;;;;1.80;1.33;;;;;;;;;;5072857;28;20508;-68
2021/12/04 05:23:35;;;;;;;3.03;1.20;;;;;;;;;;5073081;28;20868;-68
2021/12/04 05:26:02;;;;;;;2.33;1.47;;;;;;;;;;5072609;28;20405;-67
2021/12/04 05:28:29;;;;;;;2.70;1.80;;;;;;;;;;5072666;28;20448;-67
2021/12/04 05:30:55;;;;;;;2.73;1.40;;;;;;;;;;5072432;28;20436;-67
2021/12/04 05:33:21;;;;;;;2.03;1.10;;;;;;;;;;5072450;28;20396;-67
2021/12/04 05:35:48;;;;;;;2.33;1.50;;;;;;;;;;5072713;28;20429;-67
2021/12/04 05:38:14;;;;;;;3.47;1.80;;;;;;;;;;5076707;28;20795;-67
2021/12/04 05:40:40;;;;;;;2.07;1.47;;;;;;;;;;5094701;22;20612;-61
2021/12/04 05:43:06;;;;;;;1.97;1.50;;;;;;;;;;5056863;28;20406;-60
2021/12/04 05:45:38;;;;;;;2.10;1.30;;;;;;;;;;5056530;28;20892;-61
2021/12/04 05:48:13;;;;;;;2.00;1.37;;;;;;;;;;5056621;28;20530;-61
2021/12/04 05:53:18;;;;;;;1.70;1.13;;;;;;;;;;5056164;28;20763;-56
2021/12/04 05:55:54;;;;;;;2.17;1.20;;;;;;;;;;5056325;28;20382;-58
2021/12/04 05:58:23;;;;;;;2.27;1.60;;;;;;;;;;5054917;28;20412;-57
2021/12/04 06:00:49;;;;;;;3.33;1.37;;;;;;;;;;5056038;28;20413;-60
2021/12/04 06:03:15;;;;;;;2.00;1.40;;;;;;;;;;5056354;28;20424;-60
2021/12/04 06:05:41;;;;;;;2.60;1.63;;;;;;;;;;5055994;28;20527;-61
2021/12/04 06:08:07;;;;;;;3.83;2.00;;;;;;;;;;5055967;28;20969;-60
2021/12/04 06:10:33;;;;;;;1.97;1.37;;;;;;;;;;5055893;28;20418;-60
2021/12/04 06:12:59;;;;;;;3.17;1.80;;;;;;;;;;5056111;28;20406;-60
2021/12/04 06:15:26;;;;;;;2.00;1.47;;;;;;;;;;5055839;28;20910;-60
2021/12/04 06:17:54;;;;;;;6.20;1.70;;;;;;;;;;5055861;28;20410;-60
2021/12/04 06:23:04;;;;;;;2.27;1.37;;;;;;;;;;5055870;28;20900;-60
2021/12/04 06:25:30;;;;;;;3.27;1.43;;;;;;;;;;5056006;28;20394;-60
2021/12/04 06:27:57;;;;;;;3.07;1.50;;;;;;;;;;5055370;28;20453;-59
2021/12/04 06:30:24;;;;;;;3.57;1.40;;;;;;;;;;5055540;28;20494;-59
2021/12/04 06:32:51;;;;;;;3.43;1.63;;;;;;;;;;5055843;28;20406;-61
2021/12/04 06:35:18;;;;;;;2.60;1.50;;;;;;;;;;5055662;28;20402;-59
2021/12/04 06:37:44;;;;;;;3.07;1.90;;;;;;;;;;5055632;28;20406;-60
2021/12/04 06:40:12;;;;;;;2.63;1.60;;;;;;;;;;5055705;28;20436;-59
2021/12/04 06:42:38;;;;;;;2.80;1.30;;;;;;;;;;5055481;28;20443;-62
2021/12/04 06:45:05;;;;;;;2.90;2.00;;;;;;;;;;5055437;28;20430;-56
2021/12/04 06:47:32;;;;;;;7.97;1.73;;;;;;;;;;5054990;28;20456;-60
2021/12/04 06:50:10;;;;;;;2.40;1.40;;;;;;;;;;5055130;28;20413;-62
2021/12/04 06:52:37;;;;;;;2.07;1.33;;;;;;;;;;5055752;28;20377;-60
2021/12/04 06:55:03;;;;;;;3.10;1.30;;;;;;;;;;5055517;28;20964;-60
2021/12/04 06:57:32;;;;;;;2.23;1.20;;;;;;;;;;5055157;28;20394;-57
2021/12/04 06:59:59;;;;;;;1.90;1.43;;;;;;;;;;5055154;28;20398;-63
2021/12/04 07:02:25;;;;;;;1.70;1.30;;;;;;;;;;5055425;28;20843;-63
2021/12/04 07:04:51;;;;;;;3.97;1.40;;;;;;;;;;5055281;28;20398;-60
2021/12/04 07:07:17;;;;;;;2.40;1.50;;;;;;;;;;5055063;28;20434;-60
2021/12/04 07:09:44;;;;;;;1.90;1.50;;;;;;;;;;5056185;28;20952;-61
2021/12/04 07:12:10;;;;;;;2.57;1.73;;;;;;;;;;5055395;28;20820;-58
2021/12/04 07:14:37;;;;;;;4.33;2.10;;;;;;;;;;5055444;28;20406;-61
2021/12/04 07:17:04;;;;;;;2.33;1.50;;;;;;;;;;5057093;28;20481;-61
2021/12/04 07:19:31;;;;;;;2.60;1.53;;;;;;;;;;5058546;28;20467;-61
2021/12/04 07:21:58;;;;;;;2.10;1.40;;;;;;;;;;5057748;28;20434;-61
2021/12/04 07:24:26;;;;;;;2.90;1.70;;;;;;;;;;5055230;28;20398;-61
2021/12/04 07:26:52;;;;;;;3.00;2.00;;;;;;;;;;5054693;28;20405;-62
2021/12/04 07:29:18;;;;;;;3.20;2.20;;;;;;;;;;5053275;28;20449;-55
2021/12/04 07:31:44;;;;;;;4.53;2.03;;;;;;;;;;5054851;28;20430;-61
2021/12/04 07:34:10;;;;;;;2.57;1.70;;;;;;;;;;5054674;28;20389;-62
2021/12/04 07:36:36;;;;;;;3.43;2.70;;;;;;;;;;5054713;28;20401;-61
2021/12/04 07:39:03;;;;;;;2.33;1.73;;;;;;;;;;5054510;28;20448;-60
2021/12/04 07:41:29;;;;;;;5.67;2.27;;;;;;;;;;5053986;28;20437;-60
2021/12/04 07:43:55;;;;;;;2.30;1.63;;;;;;;;;;5054433;28;20402;-60
2021/12/04 07:46:21;;;;;;;2.50;1.67;;;;;;;;;;5054325;28;20448;-60
2021/12/04 07:48:47;;;;;;;4.50;2.00;;;;;;;;;;5054085;28;20454;-60
2021/12/04 07:51:17;;;;;;;6.40;1.80;;;;;;;;;;5054449;28;20504;-60
2021/12/04 07:53:46;;;;;;;3.50;2.07;;;;;;;;;;5054459;28;20417;-61
2021/12/04 07:56:12;;;;;;;2.83;2.00;;;;;;;;;;5054528;28;20394;-61
2021/12/04 07:58:39;;;;;;;3.07;1.77;;;;;;;;;;5053687;28;20784;-61
2021/12/04 08:01:05;;;;;;;3.47;2.30;;;;;;;;;;5054268;28;20795;-60
2021/12/04 08:03:31;;;;;;;2.77;2.00;;;;;;;;;;5054296;28;20437;-61
2021/12/04 08:05:58;;;;;;;2.83;1.83;;;;;;;;;;5054436;28;20398;-60
2021/12/04 08:08:24;;;;;;;2.23;1.70;;;;;;;;;;5054395;28;20464;-60
2021/12/04 08:10:50;;;;;;;2.90;1.77;;;;;;;;;;5053798;28;20429;-60
2021/12/04 08:13:16;;;;;;;3.10;1.97;;;;;;;;;;5053884;28;20398;-60
2021/12/04 08:15:43;;;;;;;2.80;2.10;;;;;;;;;;5053854;28;20398;-61
2021/12/04 08:18:09;;;;;;;3.93;2.10;;;;;;;;;;5052752;28;20797;-60
2021/12/04 08:20:36;;;;;;;2.80;2.07;;;;;;;;;;5054085;28;20426;-62
2021/12/04 08:23:02;;;;;;;3.83;2.10;;;;;;;;;;5054446;28;20449;-61
2021/12/04 08:25:31;;;;;;;2.30;1.80;;;;;;;;;;5054230;28;20402;-61
2021/12/04 08:27:57;;;;;;;3.50;1.80;;;;;;;;;;5054107;28;20799;-61
2021/12/04 08:30:25;;;;;;;5.33;3.17;;;;;;;;;;5053783;28;20837;-60
2021/12/04 08:32:53;;;;;;;4.03;2.40;;;;;;;;;;5053839;28;20394;-60
2021/12/04 08:35:21;;;;;;;3.63;2.10;;;;;;;;;;5053446;28;20956;-61
2021/12/04 08:37:47;;;;;;;3.40;1.70;;;;;;;;;;5053547;28;20410;-61
2021/12/04 08:40:15;;;;;;;3.60;2.10;;;;;;;;;;5053499;28;20473;-58
2021/12/04 08:42:41;;;;;;;2.17;1.70;;;;;;;;;;5053833;28;20420;-61
2021/12/04 08:45:08;;;;;;;3.90;2.27;;;;;;;;;;5050671;28;20500;-61
2021/12/04 08:47:34;;;;;;;2.50;1.93;;;;;;;;;;5051879;28;20458;-65
2021/12/04 08:50:01;;;;;;;6.00;2.57;;;;;;;;;;5050211;28;20815;-60
2021/12/04 08:52:27;;;;;;;3.30;2.40;;;;;;;;;;5050528;28;20931;-64
2021/12/04 08:54:53;;;;;;;3.40;1.67;;;;;;;;;;5053181;28;20417;-65
2021/12/04 08:57:19;;;;;;;4.30;2.83;;;;;;;;;;5050183;28;20763;-65
2021/12/04 08:59:47;;;;;;;2.70;2.10;;;;;;;;;;5052247;28;20442;-63
2021/12/04 09:02:14;;;;;;;4.17;2.80;;;;;;;;;;5052245;28;20807;-62
2021/12/04 09:04:40;;;;;;;6.60;3.37;;;;;;;;;;5051674;28;20410;-63
2021/12/04 09:07:07;;;;;;;3.33;2.00;;;;;;;;;;5052066;28;20420;-65
2021/12/04 09:09:33;;;;;;;4.03;2.10;;;;;;;;;;5050033;28;20420;-64
2021/12/04 09:12:03;;;;;;;3.77;1.93;;;;;;;;;;5055927;28;20452;-65
2021/12/04 09:14:31;;;;;;;5.90;2.60;;;;;;;;;;5057043;28;20752;-63
2021/12/04 09:16:59;;;;;;;3.47;2.00;;;;;;;;;;5056908;28;20390;-62
2021/12/04 09:19:25;;;;;;;3.03;2.00;;;;;;;;;;5055950;28;20406;-63
2021/12/04 09:21:52;;;;;;;4.10;2.60;;;;;;;;;;5054079;28;20432;-62
2021/12/04 09:24:25;;;;;;;5.57;2.77;;;;;;;;;;5056601;28;20413;-62
2021/12/04 10:33:50;;;;;;;7.43;3.47;;;;;;;;;;5055966;28;20394;-63
2021/12/04 10:36:27;;;;;;;6.30;3.10;;;;;;;;;;5055304;28;20406;-63
2021/12/04 10:38:54;;;;;;;4.80;2.90;;;;;;;;;;5055475;28;20435;-63
2021/12/04 10:41:28;;;;;;;7.03;3.53;;;;;;;;;;5055147;28;20441;-64
2021/12/04 10:43:54;;;;;;;5.07;3.03;;;;;;;;;;5054232;28;20965;-64
2021/12/04 10:46:22;;;;;;;6.30;3.50;;;;;;;;;;5055118;28;20436;-65
2021/12/04 10:48:51;;;;;;;4.13;2.40;;;;;;;;;;5055302;28;20441;-65
2021/12/04 10:52:01;;;;;;;3.90;2.93;;;;;;;;;;5053851;28;20444;-65
2021/12/04 10:54:24;;;;;;;4.80;2.57;;;;;;;;;;5052904;28;20413;-64
2021/12/04 10:59:44;;;;;;;3.83;2.63;;;;;;;;;;5055378;28;20755;-64
2021/12/04 11:02:44;;;;;;;5.00;2.60;;;;;;;;;;5054308;28;20486;-63
2021/12/04 11:46:23;;;;;;;1.70;1.00;;;;;;;;;;5054122;28;20381;-63
2021/12/04 11:48:49;;;;;;;2.60;1.20;;;;;;;;;;5054416;28;20441;-63
2021/12/04 11:51:20;;;;;;;1.87;1.23;;;;;;;;;;5054027;28;20414;-63
2021/12/04 11:53:46;;;;;;;4.60;1.70;;;;;;;;;;5054381;28;20432;-63
2021/12/04 11:56:14;;;;;;;1.90;1.40;;;;;;;;;;5054057;28;20452;-63
2021/12/04 11:58:44;;;;;;;1.70;1.27;;;;;;;;;;5052733;28;20414;-64
2021/12/04 12:01:32;;;;;;;1.90;1.30;;;;;;;;;;5053954;28;20422;-63
2021/12/04 12:04:00;;;;;;;2.60;1.30;;;;;;;;;;5054465;28;20402;-63
2021/12/04 12:06:28;;;;;;;4.03;1.80;;;;;;;;;;5054104;28;20773;-63
2021/12/04 12:09:01;;;;;;;2.07;1.10;;;;;;;;;;5053475;28;20998;-63
2021/12/04 12:11:28;;;;;;;3.83;1.17;;;;;;;;;;5054030;28;20788;-63
2021/12/04 12:14:05;;;;;;;2.90;1.50;;;;;;;;;;5053778;28;20404;-63
2021/12/04 12:16:36;;;;;;;2.10;1.23;;;;;;;;;;5054012;28;20382;-63
2021/12/04 12:19:09;;;;;;;1.80;1.13;;;;;;;;;;5053638;28;20386;-63
2021/12/04 12:21:59;;;;;;;2.27;1.30;;;;;;;;;;5053948;28;20421;-63
2021/12/04 12:38:30;;;;;;;2.43;1.20;;;;;;;;;;5045376;28;20402;-62
2021/12/04 12:40:58;;;;;;;2.60;1.07;;;;;;;;;;5053390;28;20505;-64
2021/12/04 12:43:33;;;;;;;1.73;1.30;;;;;;;;;;5053348;28;20402;-64
2021/12/04 12:45:59;;;;;;;2.50;1.47;;;;;;;;;;5051903;28;20504;-63
2021/12/04 12:48:25;;;;;;;3.33;1.37;;;;;;;;;;5053116;28;20449;-64
2021/12/04 12:50:53;;;;;;;1.50;1.10;;;;;;;;;;5053060;28;20457;-63
2021/12/04 12:53:28;;;;;;;1.73;1.13;;;;;;;;;;5053235;28;20397;-64
2021/12/04 12:56:06;;;;;;;1.77;1.00;;;;;;;;;;5053874;28;20785;-64
2021/12/04 12:58:42;;;;;;;2.27;1.60;;;;;;;;;;5051823;28;20455;-65
2021/12/04 13:12:48;;;;;;;2.10;1.50;;;;;;;;;;5053453;28;20420;-64
2021/12/04 13:15:17;;;;;;;1.83;1.20;;;;;;;;;;5053443;28;20724;-63
2021/12/04 13:17:43;;;;;;;4.03;1.40;;;;;;;;;;5053125;28;20968;-63
2021/12/04 13:20:10;;;;;;;2.20;1.30;;;;;;;;;;5053234;28;20401;-64
2021/12/04 13:22:37;;;;;;;3.43;1.33;;;;;;;;;;5053090;28;20504;-63
2021/12/04 13:25:06;;;;;;;3.33;1.23;;;;;;;;;;5052765;28;20426;-64
2021/12/04 13:30:05;;;;;;;1.70;1.30;;;;;;;;;;5052983;28;20856;-63
2021/12/04 13:32:35;;;;;;;4.13;1.40;;;;;;;;;;5052580;28;20929;-63
2021/12/04 13:35:17;;;;;;;5.97;1.03;;;;;;;;;;5052576;28;20405;-64
2021/12/04 13:37:43;;;;;;;3.43;1.33;;;;;;;;;;5052848;28;20410;-65
2021/12/04 13:40:11;;;;;;;1.70;1.00;;;;;;;;;;5052894;28;20413;-63
2021/12/04 13:42:38;;;;;;;1.60;0.93;;;;;;;;;;5052555;28;20939;-63
2021/12/04 13:45:10;;;;;;;2.33;1.10;;;;;;;;;;5052634;28;20410;-64
2021/12/04 13:47:37;;;;;;;2.00;1.10;;;;;;;;;;5052614;28;20390;-63
2021/12/04 13:50:21;;;;;;;1.40;0.90;;;;;;;;;;5052612;28;20390;-63
2021/12/04 13:52:47;;;;;;;1.77;1.13;;;;;;;;;;5052693;28;20370;-63
2021/12/04 13:55:16;;;;;;;1.50;0.90;;;;;;;;;;5052645;28;20756;-63
2021/12/04 13:57:43;;;;;;;1.50;1.00;;;;;;;;;;5054428;28;20393;-63
2021/12/04 14:00:11;;;;;;;1.83;1.00;;;;;;;;;;5056462;28;20899;-63
2021/12/04 14:02:37;;;;;;;1.60;0.97;;;;;;;;;;5055955;28;20476;-63
2021/12/04 14:05:09;;;;;;;1.83;1.10;;;;;;;;;;5056518;28;20485;-63
2021/12/04 14:07:36;;;;;;;4.50;0.90;;;;;;;;;;5056362;28;20397;-63
2021/12/04 14:10:19;;;;;;;1.50;0.90;;;;;;;;;;5056271;28;20417;-63
2021/12/04 14:12:45;;;;;;;1.93;1.00;;;;;;;;;;5055934;28;20488;-63
2021/12/04 14:15:12;;;;;;;1.70;0.90;;;;;;;;;;5056315;28;20543;-62
2021/12/04 14:17:38;;;;;;;3.63;0.90;;;;;;;;;;5056021;28;20418;-63
2021/12/04 14:20:05;;;;;;;1.43;0.93;;;;;;;;;;5055645;28;20437;-63
2021/12/04 14:22:32;;;;;;;1.60;0.90;;;;;;;;;;5055855;28;20427;-63
2021/12/04 14:25:01;;;;;;;1.53;1.03;;;;;;;;;;5055877;28;20422;-63
2021/12/04 14:27:33;;;;;;;1.40;0.90;;;;;;;;;;5054363;28;20417;-63
2021/12/04 14:30:00;;;;;;;1.73;1.00;;;;;;;;;;5055781;28;20440;-63
2021/12/04 14:32:28;;;;;;;1.50;0.83;;;;;;;;;;5055666;28;20505;-63
2021/12/04 14:34:58;;;;;;;2.00;1.40;;;;;;;;;;5055721;28;20776;-63
2021/12/04 14:37:25;;;;;;;2.70;1.67;;;;;;;;;;5056360;28;20394;-63
2021/12/04 14:39:51;;;;;;;1.50;1.07;;;;;;;;;;5055419;28;20394;-64
2021/12/04 14:42:23;;;;;;;1.57;0.87;;;;;;;;;;5055390;28;20496;-63
2021/12/04 14:44:54;;;;;;;1.50;1.20;;;;;;;;;;5055479;28;20409;-62
2021/12/04 14:47:21;;;;;;;1.40;0.90;;;;;;;;;;5055742;28;20406;-63
2021/12/04 14:49:49;;;;;;;1.50;0.90;;;;;;;;;;5055332;28;20401;-63
2021/12/04 14:52:20;;;;;;;2.60;1.03;;;;;;;;;;5055410;28;20501;-64
2021/12/04 14:54:47;;;;;;;1.50;0.90;;;;;;;;;;5055701;28;20400;-63
2021/12/04 14:57:15;;;;;;;1.73;0.90;;;;;;;;;;5055567;28;20394;-63
2021/12/04 14:59:41;;;;;;;1.50;1.10;;;;;;;;;;5055527;28;20394;-63
2021/12/04 15:02:17;;;;;;;3.00;1.97;;;;;;;;;;5055378;28;20418;-63
2021/12/04 15:04:44;;;;;;;2.07;0.90;;;;;;;;;;5055106;28;20883;-64
2021/12/04 15:07:24;;;;;;;1.67;0.90;;;;;;;;;;5055454;28;20470;-63
2021/12/04 15:09:50;;;;;;;1.40;0.90;;;;;;;;;;5055135;28;20428;-67
2021/12/04 15:12:37;;;;;;;1.70;1.00;;;;;;;;;;5055084;28;20483;-63
2021/12/04 15:15:05;;;;;;;2.27;1.10;;;;;;;;;;5054961;28;20389;-63
2021/12/04 15:17:33;;;;;;;3.87;1.10;;;;;;;;;;5054933;28;20409;-63
2021/12/04 15:19:59;;;;;;;1.83;1.07;;;;;;;;;;5054698;28;20499;-63
2021/12/04 15:22:45;;;;;;;2.07;1.57;;;;;;;;;;5054741;28;20421;-63
2021/12/04 15:25:15;;;;;;;2.70;1.20;;;;;;;;;;5055154;28;20384;-63
2021/12/04 15:27:41;;;;;;;1.80;1.33;;;;;;;;;;5055055;28;20484;-63
2021/12/04 15:30:10;;;;;;;1.60;1.00;;;;;;;;;;5054788;28;20496;-63
2021/12/04 15:32:38;;;;;;;1.83;1.10;;;;;;;;;;5054675;28;20422;-63
2021/12/04 15:35:25;;;;;;;1.37;0.87;;;;;;;;;;5054550;28;20404;-62
2021/12/04 15:37:59;;;;;;;2.00;0.90;;;;;;;;;;5054622;28;20424;-61
2021/12/04 15:40:29;;;;;;;1.50;0.90;;;;;;;;;;5054793;28;20397;-63
2021/12/04 15:43:17;;;;;;;2.80;1.30;;;;;;;;;;5054419;28;20398;-61
2021/12/04 15:46:12;;;;;;;2.40;1.30;;;;;;;;;;5054310;28;20445;-63
2021/12/04 15:54:19;;;;;;;3.43;0.93;;;;;;;;;;5051038;28;20413;-64
2021/12/04 15:56:53;;;;;;;2.23;1.20;;;;;;;;;;5052039;28;20416;-68
2021/12/04 15:59:21;;;;;;;1.90;1.30;;;;;;;;;;5053841;28;20751;-65
2021/12/04 16:01:50;;;;;;;3.93;1.20;;;;;;;;;;5053469;28;20475;-66
2021/12/04 16:04:24;;;;;;;1.87;1.20;;;;;;;;;;5053651;28;20448;-66
2021/12/04 16:06:51;;;;;;;3.23;1.00;;;;;;;;;;5052670;28;20532;-65
2021/12/04 16:09:27;;;;;;;2.80;1.37;;;;;;;;;;5053085;28;20499;-68
2021/12/04 16:11:58;;;;;;;2.00;1.00;;;;;;;;;;5052792;28;20804;-65
2021/12/04 16:14:28;;;;;;;3.33;1.27;;;;;;;;;;5053780;28;20480;-65
2021/12/04 16:16:54;;;;;;;1.60;1.10;;;;;;;;;;5034394;28;20394;-65
2021/12/04 16:19:20;;;;;;;3.90;1.83;;;;;;;;;;5050411;28;20417;-67
2021/12/04 16:21:46;;;;;;;1.93;1.00;;;;;;;;;;5053077;28;20448;-63
2021/12/04 16:24:12;;;;;;;2.53;1.00;;;;;;;;;;5053356;28;20417;-62
2021/12/04 16:26:40;;;;;;;1.70;1.00;;;;;;;;;;5052990;28;20475;-65
2021/12/04 16:29:09;;;;;;;2.10;1.10;;;;;;;;;;5052619;28;20501;-65
2021/12/04 16:37:33;;;;;;;2.77;1.43;;;;;;;;;;5053000;28;20404;-65
2021/12/04 16:40:00;;;;;;;1.57;0.90;;;;;;;;;;5052967;28;20411;-66
2021/12/04 16:42:26;;;;;;;1.57;1.33;;;;;;;;;;5052921;28;20620;-65
2021/12/04 16:44:52;;;;;;;1.77;1.00;;;;;;;;;;5052639;28;20418;-65
2021/12/04 16:47:19;;;;;;;1.70;1.03;;;;;;;;;;5052839;28;20429;-65
2021/12/04 16:49:47;;;;;;;1.60;1.20;;;;;;;;;;5052496;28;20448;-65
2021/12/04 16:55:17;;;;;;;1.40;0.97;;;;;;;;;;5050319;28;20727;-65
2021/12/04 16:57:58;;;;;;;3.27;1.23;;;;;;;;;;5053211;28;20425;-65
2021/12/04 17:00:24;;;;;;;1.60;1.00;;;;;;;;;;5052946;28;20398;-66
2021/12/04 17:02:50;;;;;;;1.97;1.13;;;;;;;;;;5052222;28;20425;-65
2021/12/04 17:05:17;;;;;;;1.40;0.90;;;;;;;;;;5052461;28;20505;-65
2021/12/04 17:07:44;;;;;;;1.50;0.97;;;;;;;;;;5052289;28;20757;-65
2021/12/04 17:10:11;;;;;;;1.80;1.10;;;;;;;;;;5051951;28;20413;-65
2021/12/04 17:12:38;;;;;;;1.43;1.00;;;;;;;;;;5052765;28;20920;-65
2021/12/04 17:15:08;;;;;;;1.40;0.83;;;;;;;;;;5052193;28;20429;-65
2021/12/04 17:17:39;;;;;;;1.97;1.10;;;;;;;;;;5052307;28;20417;-65
2021/12/04 17:20:06;;;;;;;2.43;1.20;;;;;;;;;;5052158;28;20435;-66
2021/12/04 17:22:32;;;;;;;1.50;1.10;;;;;;;;;;5050966;28;20437;-66
2021/12/04 17:24:59;;;;;;;3.30;1.87;;;;;;;;;;5053517;28;20499;-66
2021/12/04 17:27:25;;;;;;;1.63;1.10;;;;;;;;;;5052829;28;20715;-65
2021/12/04 17:29:52;;;;;;;1.80;1.30;;;;;;;;;;5052972;28;20488;-65
2021/12/04 17:32:20;;;;;;;3.00;1.47;;;;;;;;;;5052780;28;20932;-65
2021/12/04 17:34:46;;;;;;;2.10;1.20;;;;;;;;;;5056134;28;20413;-69
2021/12/04 17:37:14;;;;;;;2.20;1.60;;;;;;;;;;5056389;28;20467;-65
2021/12/04 17:39:40;;;;;;;2.00;1.10;;;;;;;;;;5051954;28;20456;-64
2021/12/04 17:42:06;;;;;;;1.40;1.00;;;;;;;;;;5072466;22;20850;-65
2021/12/04 17:44:32;;;;;;;1.90;0.80;;;;;;;;;;5027102;28;20445;-65
2021/12/04 17:46:58;;;;;;;1.90;1.00;;;;;;;;;;5022328;28;20594;-66
2021/12/04 17:49:25;;;;;;;1.70;1.10;;;;;;;;;;5032489;28;20532;-64
2021/12/04 17:51:52;;;;;;;2.23;1.03;;;;;;;;;;5036629;28;20421;-64
2021/12/04 17:54:19;;;;;;;1.40;0.90;;;;;;;;;;5036979;28;20398;-64
2021/12/04 17:56:47;;;;;;;1.40;0.90;;;;;;;;;;5036731;28;20398;-64
2021/12/04 17:59:13;;;;;;;2.83;1.00;;;;;;;;;;5036636;28;20478;-64
2021/12/04 18:01:49;;;;;;;1.70;0.93;;;;;;;;;;5036300;28;21075;-64
2021/12/04 18:04:19;;;;;;;2.17;0.90;;;;;;;;;;5036416;28;20436;-64
2021/12/04 18:06:47;;;;;;;1.80;1.00;;;;;;;;;;5036532;28;20399;-63
2021/12/04 18:09:14;;;;;;;2.10;1.20;;;;;;;;;;5036501;28;20828;-64
2021/12/04 18:11:49;;;;;;;1.73;1.10;;;;;;;;;;5036507;28;20912;-64
2021/12/04 18:14:17;;;;;;;1.63;1.10;;;;;;;;;;5036558;28;20378;-64
2021/12/04 18:16:48;;;;;;;1.70;0.90;;;;;;;;;;5036596;28;20402;-64
2021/12/04 18:19:14;;;;;;;1.43;1.17;;;;;;;;;;5036343;28;20470;-64
2021/12/04 18:21:41;;;;;;;1.60;1.10;;;;;;;;;;5036046;28;20425;-64
2021/12/04 18:24:08;;;;;;;1.93;1.10;;;;;;;;;;5034950;28;20967;-64
2021/12/04 18:26:35;;;;;;;2.20;1.63;;;;;;;;;;5036285;28;20777;-66
2021/12/04 18:29:01;;;;;;;1.50;0.93;;;;;;;;;;5035720;28;20531;-65